• Join FlightAware (Why Join?)
  • Login
  • US Flag 
03:05PM EDT


 

Airport Tracker/Info


-or-


 

Live Flight TrackerFlight Track Log ✈ KAP927 ✈ 04-Jul-2013 ✈ KBOS - KALB

Flight Track Log - Related Links

Times and Time Zones

All times are in EDT time to prevent confusion due to time zone crossing. See the KAP927 flight status page for this flight to view local times or setup timezone preferences in your user account.

Time Position Orientation Groundspeed Altitude Reporting Facility
EDT Latitude Longitude Course Direction KTS MPH feet Rate Location/Type
01:23PM 42.3667 -71.0167 216° Southwest 104 120 400  Level KA90
01:24PM 42.3333 -71.0500 216° Southwest 107 123 1,400 780 Climbing KA90
01:25PM 42.3333 -71.0833 270° West 108 124 2,200 720 Climbing KA90
01:26PM 42.3167 -71.1167 236° Southwest 112 129 2,900 660 Climbing KA90
01:27PM 42.3167 -71.1667 270° West 117 135 3,600 660 Climbing KA90
01:28PM 42.3167 -71.2000 270° West 115 132 4,300 780 Climbing KA90
01:29PM 42.3167 -71.2500 270° West 114 131 5,200 780 Climbing KA90
01:30PM 42.3000 -71.3000 246° West 116 133 6,000 660 Climbing KA90
01:31PM 42.3000 -71.3500 270° West 124 143 6,700 660 Climbing KA90
01:32PM 42.3000 -71.3833 270° West 121 139 7,400 720 Climbing KA90
01:33PM 42.3000 -71.4333 270° West 118 136 8,100 660 Climbing KA90
01:34PM 42.2919 -71.4689 253° West 120 138 8,600 540 Climbing Boston Center
01:35PM 42.2883 -71.5222 265° West 125 144 9,200 480 Climbing Boston Center
01:36PM 42.2825 -71.5731 261° West 130 150 9,700 420 Climbing Boston Center
01:37PM 42.2786 -71.6236 264° West 135 155 10,100 180 Climbing Boston Center
01:38PM 42.2769 -71.6797 268° West 154 177 10,100  Level Boston Center
01:39PM 42.2711 -71.7414 263° West 161 185 10,100 -60 Level Boston Center
01:40PM 42.2672 -71.7978 265° West 161 185 10,000  Descending Boston Center
01:41PM 42.2675 -71.8594 270° West 165 190 10,100  Climbing Boston Center
01:42PM 42.2700 -71.9183 273° West 162 186 10,100  Level Boston Center
01:43PM 42.2703 -71.9800 270° West 160 184 10,100 -60 Level Boston Center
01:44PM 42.2725 -72.0361 273° West 155 178 10,000  Descending Boston Center
01:45PM 42.2706 -72.0950 267° West 149 171 10,100  Climbing Boston Center
01:46PM 42.2728 -72.1511 273° West 148 170 10,000  Descending Boston Center
01:47PM 42.2750 -72.2072 273° West 149 171 10,100  Climbing Boston Center
01:48PM 42.2772 -72.2633 273° West 148 170 10,100 -60 Level Boston Center
01:49PM 42.2961 -72.3167 296° West 151 174 10,000 -60 Descending Boston Center
01:50PM 42.3108 -72.3672 292° West 150 173 10,000  Level Boston Center
01:51PM 42.3275 -72.4206 293° West 148 170 10,000  Level Boston Center
01:52PM 42.3442 -72.4711 294° West 152 175 10,000  Level Boston Center
01:53PM 42.3586 -72.5244 290° West 151 174 10,100  Climbing Boston Center
01:54PM 42.3753 -72.5806 292° West 151 174 10,000 -60 Descending Boston Center
01:55PM 42.3919 -72.6314 294° West 150 173 10,000  Level Boston Center
01:56PM 42.4106 -72.6847 295° West 150 173 10,000  Level Boston Center
01:57PM 42.4272 -72.7353 294° West 147 169 10,000  Level Boston Center
01:58PM 42.4417 -72.7861 291° West 147 169 10,000  Level Boston Center
01:59PM 42.4600 -72.8425 294° West 151 174 10,000 60 Level Boston Center
02:00PM 42.4706 -72.8708 297° West 153 176 10,100 60 Climbing Boston Center
02:01PM 42.4828 -72.9214 288° West 147 169 10,100  Level Boston Center
02:02PM 42.4992 -72.9722 294° West 147 169 10,100 -60 Level Boston Center
02:03PM 42.5178 -73.0317 293° West 148 170 10,000 -60 Descending Boston Center
02:04PM 42.5342 -73.0853 293° West 151 174 10,000 -120 Level Boston Center
02:05PM 42.5525 -73.1361 296° West 152 175 9,800 -360 Descending Boston Center
02:06PM 42.5667 -73.1928 289° West 156 180 9,300 -540 Descending Boston Center
02:07PM 42.5808 -73.2464 290° West 151 174 8,800 -480 Descending Boston Center
02:08PM 42.5972 -73.2975 294° West 152 175 8,400 -480 Descending Boston Center
02:09PM 42.6156 -73.3542 294° West 157 181 7,900 -480 Descending Boston Center
02:10PM 42.6317 -73.4108 291° West 157 181 7,500 -420 Descending Boston Center
02:11PM 42.6500 -73.4733 292° West 156 180 7,000 -480 Descending Boston Center
02:12PM 42.6703 -73.5356 294° West 154 177 6,400 -540 Descending Boston Center
02:13PM 42.6864 -73.5925 291° West 156 180 5,900 -600 Descending Boston Center
02:15PM 42.7089 -73.6381 304° West 157 181 5,300 -660 Descending Boston Center
02:16PM 42.7394 -73.6839 312° West 158 182 4,600 -720 Descending Boston Center
02:16PM 42.7664 -73.7183 317° Northwest 157 181 4,000 -660 Descending Boston Center
02:17PM 42.7972 -73.7503 323° Northwest 142 163 3,400 -660 Descending Boston Center
02:18PM 42.8156 -73.7931 300° West 123 142 2,700 -840 Descending Boston Center
02:19PM 42.7922 -73.8094 207° Southwest 94 108 1,700 -1,020 Descending Boston Center
02:20PM 42.7672 -73.8061 174° South 86 99 700 -1,020 Descending Boston Center
02:22PM 42.7491 -73.8020 170° South  Level Estimated
02:29PM 42.7491 -73.8020 304° West  Level Estimated
02:30PM 42.7491 -73.8020 304° West  Level Estimated
02:31PM 42.7491 -73.8020 304° West  Level Estimated